Time;durP1;ratioP1;P1;durP2;ratioP2;P2;SDS_P1;SDS_P2;PMS_P1;PMS_P2;Temp;Humidity;BMP_temperature;BMP_pressure;BME280_temperature;BME280_humidity;BME280_pressure;Samples;Min_cycle;Max_cycle;Signal;HPM_P1;HPM_P2
2023/09/13 00:02:26;;;;;;;0.43;0.43;;;;;;;;;;5073302;28;20221;-81
2023/09/13 00:04:57;;;;;;;1.43;1.43;;;;;;;;;;5073013;28;20223;-81
2023/09/13 00:07:26;;;;;;;1.67;0.77;;;;;;;;;;5073107;28;20217;-81
2023/09/13 00:09:56;;;;;;;0.30;0.30;;;;;;;;;;5073607;28;20208;-81
2023/09/13 00:12:25;;;;;;;0.50;0.50;;;;;;;;;;5073409;28;20207;-81
2023/09/13 00:14:54;;;;;;;0.90;0.90;;;;;;;;;;5073057;28;20282;-81
2023/09/13 00:17:27;;;;;;;1.33;1.23;;;;;;;;;;5073103;28;20208;-81
2023/09/13 00:19:57;;;;;;;0.40;0.40;;;;;;;;;;5073051;28;20284;-81
2023/09/13 00:22:26;;;;;;;0.30;0.30;;;;;;;;;;5073283;28;20203;-81
2023/09/13 00:24:54;;;;;;;0.73;0.73;;;;;;;;;;5072855;28;20200;-81
2023/09/13 00:27:23;;;;;;;0.40;0.40;;;;;;;;;;5072633;28;20404;-81
2023/09/13 00:29:52;;;;;;;1.40;1.13;;;;;;;;;;5073314;28;20300;-81
2023/09/13 00:32:20;;;;;;;0.30;0.30;;;;;;;;;;5072759;28;20196;-81
2023/09/13 00:34:50;;;;;;;0.40;0.40;;;;;;;;;;5073037;28;20207;-81
2023/09/13 00:37:19;;;;;;;0.40;0.40;;;;;;;;;;5072897;28;20211;-81
2023/09/13 00:39:47;;;;;;;1.40;1.03;;;;;;;;;;5072654;28;20191;-81
2023/09/13 00:42:16;;;;;;;0.97;0.80;;;;;;;;;;5076332;28;20210;-81
2023/09/13 00:44:44;;;;;;;0.50;0.50;;;;;;;;;;5076201;28;20210;-84
2023/09/13 00:47:13;;;;;;;0.93;0.93;;;;;;;;;;5075391;28;20197;-84
2023/09/13 00:49:41;;;;;;;0.37;0.37;;;;;;;;;;5076221;28;20208;-83
2023/09/13 00:52:11;;;;;;;0.30;0.30;;;;;;;;;;5075390;28;20205;-83
2023/09/13 00:54:40;;;;;;;0.30;0.30;;;;;;;;;;5075635;28;20203;-83
2023/09/13 00:57:09;;;;;;;0.47;0.47;;;;;;;;;;5075954;28;20268;-84
2023/09/13 00:59:37;;;;;;;1.30;0.97;;;;;;;;;;5075380;28;20212;-83
2023/09/13 01:02:06;;;;;;;0.70;0.70;;;;;;;;;;5075464;28;20200;-83
2023/09/13 01:04:36;;;;;;;0.30;0.30;;;;;;;;;;5075661;28;20204;-81
2023/09/13 01:07:05;;;;;;;0.30;0.30;;;;;;;;;;5076846;28;20200;-81
2023/09/13 01:09:35;;;;;;;0.70;0.70;;;;;;;;;;5076469;28;20273;-81
2023/09/13 01:12:04;;;;;;;0.40;0.40;;;;;;;;;;5076340;28;20209;-82
2023/09/13 01:14:35;;;;;;;0.20;0.20;;;;;;;;;;5076645;28;20207;-81
2023/09/13 01:17:10;;;;;;;1.03;1.03;;;;;;;;;;5076067;28;20211;-81
2023/09/13 01:19:50;;;;;;;0.70;0.70;;;;;;;;;;5075120;28;20210;-83
2023/09/13 01:22:42;;;;;;;2.53;1.13;;;;;;;;;;5074731;28;20241;-84
2023/09/13 01:25:25;;;;;;;0.50;0.50;;;;;;;;;;5075401;28;20208;-84
2023/09/13 01:27:58;;;;;;;0.47;0.47;;;;;;;;;;5031079;28;20231;-84
2023/09/13 01:30:29;;;;;;;1.07;1.00;;;;;;;;;;5074620;28;20239;-83
2023/09/13 01:32:58;;;;;;;0.90;0.90;;;;;;;;;;5075291;28;20239;-84
2023/09/13 01:35:26;;;;;;;1.10;1.00;;;;;;;;;;5075241;28;20205;-83
2023/09/13 01:37:55;;;;;;;0.40;0.40;;;;;;;;;;5075140;28;20247;-84
2023/09/13 01:40:24;;;;;;;1.03;1.03;;;;;;;;;;5074781;28;20196;-83
2023/09/13 01:42:53;;;;;;;1.47;1.37;;;;;;;;;;5074867;28;20215;-84
2023/09/13 01:45:24;;;;;;;1.10;1.07;;;;;;;;;;5074836;28;20400;-83
2023/09/13 01:47:54;;;;;;;0.40;0.40;;;;;;;;;;5074554;28;20234;-83
2023/09/13 01:50:23;;;;;;;0.90;0.53;;;;;;;;;;5075290;28;20232;-83
2023/09/13 01:52:51;;;;;;;0.50;0.50;;;;;;;;;;5074344;28;20200;-84
2023/09/13 01:55:20;;;;;;;0.90;0.80;;;;;;;;;;5074474;28;20209;-84
2023/09/13 01:57:51;;;;;;;0.37;0.37;;;;;;;;;;5075358;28;20224;-82
2023/09/13 02:00:20;;;;;;;0.30;0.30;;;;;;;;;;5074833;28;20206;-84
2023/09/13 02:02:49;;;;;;;0.30;0.30;;;;;;;;;;5074912;28;20268;-81
2023/09/13 02:05:19;;;;;;;0.20;0.20;;;;;;;;;;5075319;28;20203;-81
2023/09/13 02:07:48;;;;;;;1.67;0.90;;;;;;;;;;5075325;28;20199;-81
2023/09/13 02:10:16;;;;;;;0.47;0.47;;;;;;;;;;5075678;28;20207;-81
2023/09/13 02:12:51;;;;;;;0.87;0.83;;;;;;;;;;5075482;28;20193;-81
2023/09/13 02:15:19;;;;;;;0.90;0.90;;;;;;;;;;5075227;28;20203;-81
2023/09/13 02:17:48;;;;;;;1.47;1.27;;;;;;;;;;5075169;28;20192;-84
2023/09/13 02:20:17;;;;;;;0.70;0.70;;;;;;;;;;5074001;28;20243;-83
2023/09/13 02:22:46;;;;;;;0.30;0.30;;;;;;;;;;5073967;28;20209;-83
2023/09/13 02:25:16;;;;;;;0.30;0.30;;;;;;;;;;5074084;28;20203;-83
2023/09/13 02:27:44;;;;;;;0.60;0.60;;;;;;;;;;5073955;28;20229;-84
2023/09/13 02:30:13;;;;;;;0.60;0.60;;;;;;;;;;5073666;28;20222;-84
2023/09/13 02:32:41;;;;;;;0.30;0.30;;;;;;;;;;5073561;28;20197;-83
2023/09/13 02:35:11;;;;;;;0.30;0.30;;;;;;;;;;5074274;28;20196;-83
2023/09/13 02:37:40;;;;;;;0.67;0.67;;;;;;;;;;5074465;28;20305;-81
2023/09/13 02:40:10;;;;;;;1.03;1.03;;;;;;;;;;5074811;28;20201;-81
2023/09/13 02:42:39;;;;;;;1.00;0.90;;;;;;;;;;5074446;28;20204;-81
2023/09/13 02:45:09;;;;;;;0.30;0.30;;;;;;;;;;5074657;28;20208;-81
2023/09/13 02:47:38;;;;;;;0.60;0.60;;;;;;;;;;5074132;28;20302;-81
2023/09/13 02:50:07;;;;;;;1.03;1.00;;;;;;;;;;5074623;28;20243;-81
2023/09/13 02:52:36;;;;;;;0.40;0.40;;;;;;;;;;5074535;28;20306;-81
2023/09/13 02:55:06;;;;;;;3.00;2.43;;;;;;;;;;5074752;28;20287;-81
2023/09/13 02:57:36;;;;;;;3.93;2.67;;;;;;;;;;5074097;28;20208;-84
2023/09/13 03:00:05;;;;;;;1.27;1.03;;;;;;;;;;5072906;28;20206;-83
2023/09/13 03:02:34;;;;;;;2.87;0.83;;;;;;;;;;5073355;28;20205;-83
2023/09/13 03:05:05;;;;;;;3.73;0.77;;;;;;;;;;5072405;28;20225;-83
2023/09/13 03:07:33;;;;;;;2.40;1.73;;;;;;;;;;5073088;28;20209;-83
2023/09/13 03:10:02;;;;;;;0.93;0.93;;;;;;;;;;5072921;28;20220;-84
2023/09/13 03:12:31;;;;;;;0.63;0.63;;;;;;;;;;5073520;28;20200;-83
2023/09/13 03:15:01;;;;;;;0.73;0.73;;;;;;;;;;5073023;28;20202;-84
2023/09/13 03:17:30;;;;;;;1.23;1.13;;;;;;;;;;5072461;28;20193;-83
2023/09/13 03:19:59;;;;;;;4.33;3.17;;;;;;;;;;5073037;28;20204;-84
2023/09/13 03:22:27;;;;;;;1.27;1.17;;;;;;;;;;5072870;28;20199;-83
2023/09/13 03:24:56;;;;;;;0.43;0.43;;;;;;;;;;5073085;28;20201;-84
2023/09/13 03:27:24;;;;;;;0.63;0.63;;;;;;;;;;5072268;28;20235;-83
2023/09/13 03:29:52;;;;;;;0.43;0.43;;;;;;;;;;5072593;28;20218;-83
2023/09/13 03:32:23;;;;;;;1.57;1.13;;;;;;;;;;5073267;28;20196;-81
2023/09/13 03:34:51;;;;;;;0.77;0.77;;;;;;;;;;5073647;28;20288;-81
2023/09/13 03:37:20;;;;;;;1.80;1.50;;;;;;;;;;5073275;28;20242;-81
2023/09/13 03:39:50;;;;;;;0.73;0.73;;;;;;;;;;5073892;28;20202;-81
2023/09/13 03:42:18;;;;;;;0.30;0.30;;;;;;;;;;5072831;28;20205;-83
2023/09/13 03:44:47;;;;;;;0.77;0.77;;;;;;;;;;5073145;28;20294;-81
2023/09/13 03:47:16;;;;;;;1.40;1.23;;;;;;;;;;5073205;28;20195;-81
2023/09/13 03:49:46;;;;;;;1.30;1.20;;;;;;;;;;5073643;28;20220;-81
2023/09/13 03:52:14;;;;;;;0.30;0.30;;;;;;;;;;5073710;28;20209;-81
2023/09/13 03:54:45;;;;;;;2.63;1.90;;;;;;;;;;5073296;28;20206;-81
2023/09/13 03:57:16;;;;;;;45.83;4.53;;;;;;;;;;5073917;28;20209;-85
2023/09/13 03:59:48;;;;;;;0.20;0.20;;;;;;;;;;5073758;28;20234;-86
2023/09/13 04:02:16;;;;;;;0.30;0.30;;;;;;;;;;5074049;28;20194;-86
2023/09/13 04:04:48;;;;;;;0.30;0.30;;;;;;;;;;5073688;28;20296;-86
2023/09/13 04:07:17;;;;;;;0.30;0.30;;;;;;;;;;5075364;28;20203;-85
2023/09/13 04:09:46;;;;;;;5.67;1.20;;;;;;;;;;5075488;28;20217;-85
2023/09/13 04:12:18;;;;;;;3.80;1.83;;;;;;;;;;5074988;28;20200;-85
2023/09/13 04:14:46;;;;;;;3.50;1.47;;;;;;;;;;5074258;28;20197;-84
2023/09/13 04:17:15;;;;;;;2.47;1.47;;;;;;;;;;5074174;28;20212;-84
2023/09/13 04:19:44;;;;;;;1.67;1.00;;;;;;;;;;5074013;28;20325;-84
2023/09/13 04:22:16;;;;;;;1.53;1.10;;;;;;;;;;5073948;28;20197;-84
2023/09/13 04:24:45;;;;;;;2.70;1.10;;;;;;;;;;5074844;28;20204;-84
2023/09/13 04:27:13;;;;;;;1.23;1.13;;;;;;;;;;5074482;28;20323;-84
2023/09/13 04:29:44;;;;;;;1.80;1.03;;;;;;;;;;5074548;28;20224;-84
2023/09/13 04:32:13;;;;;;;1.20;1.10;;;;;;;;;;5074429;28;20204;-83
2023/09/13 04:34:42;;;;;;;2.73;1.40;;;;;;;;;;5074099;28;20218;-84
2023/09/13 04:37:15;;;;;;;6.50;2.57;;;;;;;;;;5073587;28;20228;-84
2023/09/13 04:39:44;;;;;;;1.43;1.33;;;;;;;;;;5073944;28;20199;-83
2023/09/13 04:42:13;;;;;;;3.70;1.20;;;;;;;;;;5073590;28;20204;-84
2023/09/13 04:44:41;;;;;;;7.60;2.43;;;;;;;;;;5073832;28;20294;-83
2023/09/13 04:47:10;;;;;;;3.73;2.40;;;;;;;;;;5073218;28;20267;-83
2023/09/13 04:49:39;;;;;;;4.77;2.13;;;;;;;;;;5073481;28;20282;-83
2023/09/13 04:52:09;;;;;;;2.67;1.80;;;;;;;;;;5073712;28;20203;-83
2023/09/13 04:54:39;;;;;;;2.87;1.53;;;;;;;;;;5073658;28;20291;-83
2023/09/13 04:57:08;;;;;;;4.43;1.90;;;;;;;;;;5073355;28;20201;-82
2023/09/13 04:59:43;;;;;;;2.33;1.63;;;;;;;;;;5072830;28;20191;-82
2023/09/13 05:02:12;;;;;;;2.73;1.50;;;;;;;;;;5072938;28;20272;-82
2023/09/13 05:04:41;;;;;;;2.63;1.30;;;;;;;;;;5073137;28;20220;-82
2023/09/13 05:07:10;;;;;;;8.90;2.63;;;;;;;;;;5073521;28;20243;-82
2023/09/13 05:09:40;;;;;;;11.33;1.80;;;;;;;;;;5073358;28;20215;-81
2023/09/13 05:12:09;;;;;;;4.73;2.03;;;;;;;;;;5073037;28;20201;-82
2023/09/13 05:14:37;;;;;;;3.70;2.00;;;;;;;;;;5073329;28;20208;-82
2023/09/13 05:17:06;;;;;;;2.43;1.40;;;;;;;;;;5073147;28;20204;-81
2023/09/13 05:19:34;;;;;;;1.33;1.23;;;;;;;;;;5073154;28;20203;-82
2023/09/13 05:22:03;;;;;;;1.53;1.43;;;;;;;;;;5073030;28;20208;-82
2023/09/13 05:24:31;;;;;;;4.60;1.50;;;;;;;;;;5072482;28;20203;-81
2023/09/13 05:27:01;;;;;;;9.63;2.17;;;;;;;;;;5072553;28;20204;-82
2023/09/13 05:29:30;;;;;;;3.47;1.30;;;;;;;;;;5075490;28;20238;-83
2023/09/13 05:31:59;;;;;;;6.73;2.13;;;;;;;;;;5076090;28;20204;-84
2023/09/13 05:34:29;;;;;;;1.87;1.27;;;;;;;;;;5075567;28;20204;-84
2023/09/13 05:36:57;;;;;;;2.53;1.47;;;;;;;;;;5075215;28;20259;-84
2023/09/13 05:39:26;;;;;;;3.43;1.60;;;;;;;;;;5075410;28;20202;-84
2023/09/13 05:41:55;;;;;;;10.00;1.70;;;;;;;;;;5075178;28;20196;-84
2023/09/13 05:44:28;;;;;;;2.40;1.67;;;;;;;;;;5075755;28;20203;-84
2023/09/13 05:46:56;;;;;;;1.50;1.00;;;;;;;;;;5075264;28;20272;-82
2023/09/13 05:49:25;;;;;;;6.27;1.27;;;;;;;;;;5074954;28;20196;-81
2023/09/13 05:51:54;;;;;;;1.13;1.03;;;;;;;;;;5074462;28;20311;-83
2023/09/13 05:54:23;;;;;;;2.87;1.40;;;;;;;;;;5075224;28;20226;-83
2023/09/13 05:56:56;;;;;;;3.30;1.13;;;;;;;;;;5075220;28;20208;-83
2023/09/13 05:59:26;;;;;;;1.60;0.70;;;;;;;;;;5075149;28;20272;-84
2023/09/13 06:01:54;;;;;;;2.40;1.27;;;;;;;;;;5074807;28;20212;-83
2023/09/13 06:04:23;;;;;;;0.70;0.70;;;;;;;;;;5074850;28;20304;-83
2023/09/13 06:06:51;;;;;;;1.93;1.13;;;;;;;;;;5074844;28;20240;-83
2023/09/13 06:09:21;;;;;;;2.47;1.07;;;;;;;;;;5075152;28;20201;-83
2023/09/13 06:11:50;;;;;;;2.37;1.20;;;;;;;;;;5074698;28;20221;-83
2023/09/13 06:14:19;;;;;;;3.30;1.37;;;;;;;;;;5074944;28;20204;-83
2023/09/13 06:16:49;;;;;;;2.83;1.23;;;;;;;;;;5075518;28;20201;-83
2023/09/13 06:19:17;;;;;;;3.40;1.23;;;;;;;;;;5074992;28;20205;-83
2023/09/13 06:21:49;;;;;;;1.00;1.00;;;;;;;;;;5074965;28;20189;-83
2023/09/13 06:24:17;;;;;;;2.60;1.80;;;;;;;;;;5075150;28;20240;-83
2023/09/13 06:26:46;;;;;;;0.93;0.60;;;;;;;;;;5074928;28;20202;-83
2023/09/13 06:29:14;;;;;;;0.80;0.80;;;;;;;;;;5074348;28;20236;-83
2023/09/13 06:31:43;;;;;;;1.43;0.67;;;;;;;;;;5074277;28;20252;-83
2023/09/13 06:34:32;;;;;;;0.60;0.60;;;;;;;;;;5074995;28;20196;-83
2023/09/13 06:37:02;;;;;;;1.17;0.80;;;;;;;;;;5074695;28;20254;-83
2023/09/13 06:39:34;;;;;;;1.43;0.93;;;;;;;;;;5074618;28;20199;-83
2023/09/13 06:42:04;;;;;;;1.50;0.93;;;;;;;;;;5075174;28;20292;-83
2023/09/13 06:44:52;;;;;;;3.03;0.93;;;;;;;;;;5074258;28;20244;-83
2023/09/13 06:47:46;;;;;;;0.50;0.50;;;;;;;;;;5073806;28;20295;-84
2023/09/13 06:50:18;;;;;;;0.70;0.70;;;;;;;;;;5074903;28;20234;-83
2023/09/13 06:53:06;;;;;;;0.77;0.70;;;;;;;;;;5074169;28;20241;-83
2023/09/13 06:55:54;;;;;;;1.27;1.00;;;;;;;;;;5074798;28;20263;-84
2023/09/13 06:58:25;;;;;;;6.40;0.80;;;;;;;;;;5073626;28;20251;-83
2023/09/13 07:00:57;;;;;;;0.70;0.70;;;;;;;;;;5074500;28;20276;-84
2023/09/13 07:03:46;;;;;;;0.63;0.63;;;;;;;;;;5073921;28;20209;-84
2023/09/13 07:06:25;;;;;;;1.53;1.43;;;;;;;;;;5074055;28;20199;-83
2023/09/13 07:08:53;;;;;;;0.97;0.93;;;;;;;;;;5074278;28;20208;-84
2023/09/13 07:11:24;;;;;;;1.37;0.80;;;;;;;;;;5074023;28;20240;-84
2023/09/13 07:13:52;;;;;;;1.03;0.97;;;;;;;;;;5073657;28;20202;-83
2023/09/13 07:16:21;;;;;;;0.80;0.73;;;;;;;;;;5073601;28;20194;-83
2023/09/13 07:18:49;;;;;;;1.80;1.03;;;;;;;;;;5073856;28;20192;-84
2023/09/13 07:21:18;;;;;;;0.80;0.80;;;;;;;;;;5073538;28;20194;-84
2023/09/13 07:23:48;;;;;;;2.00;1.50;;;;;;;;;;5073258;28;20217;-84
2023/09/13 07:26:17;;;;;;;0.73;0.60;;;;;;;;;;5072931;28;20202;-84
2023/09/13 07:28:46;;;;;;;0.97;0.90;;;;;;;;;;5072758;28;20226;-82
2023/09/13 07:31:14;;;;;;;1.10;1.00;;;;;;;;;;5073614;28;20215;-84
2023/09/13 07:33:43;;;;;;;1.53;1.33;;;;;;;;;;5073702;28;20248;-84
2023/09/13 07:36:13;;;;;;;1.10;0.97;;;;;;;;;;5073582;28;20217;-84
2023/09/13 07:38:41;;;;;;;0.97;0.87;;;;;;;;;;5073462;28;20206;-84
2023/09/13 07:41:12;;;;;;;0.70;0.70;;;;;;;;;;5073348;28;20200;-84
2023/09/13 07:43:40;;;;;;;0.70;0.60;;;;;;;;;;5075212;28;20201;-84
2023/09/13 07:46:09;;;;;;;0.77;0.77;;;;;;;;;;5073815;28;20396;-84
2023/09/13 07:48:38;;;;;;;1.63;0.93;;;;;;;;;;5072975;28;20201;-84
2023/09/13 07:51:06;;;;;;;2.13;1.30;;;;;;;;;;5071568;28;20221;-84
2023/09/13 07:53:35;;;;;;;3.00;0.90;;;;;;;;;;5071723;28;20194;-83
2023/09/13 07:56:03;;;;;;;1.27;1.03;;;;;;;;;;5072797;28;20202;-83
2023/09/13 07:58:34;;;;;;;7.93;1.27;;;;;;;;;;5072107;28;20205;-84
2023/09/13 08:01:03;;;;;;;0.37;0.37;;;;;;;;;;5071714;28;20215;-83
2023/09/13 08:03:31;;;;;;;3.23;1.43;;;;;;;;;;5072035;28;20189;-84
2023/09/13 08:06:03;;;;;;;0.83;0.83;;;;;;;;;;5072503;28;20193;-84
2023/09/13 08:08:33;;;;;;;0.50;0.50;;;;;;;;;;5071942;28;20208;-84
2023/09/13 08:11:03;;;;;;;1.53;0.90;;;;;;;;;;5072180;28;20259;-84
2023/09/13 08:13:31;;;;;;;0.90;0.90;;;;;;;;;;5072595;28;20204;-84
2023/09/13 08:16:02;;;;;;;1.13;0.73;;;;;;;;;;5072482;28;20297;-84
2023/09/13 08:18:30;;;;;;;0.77;0.70;;;;;;;;;;5072055;28;20267;-83
2023/09/13 08:20:59;;;;;;;0.83;0.50;;;;;;;;;;5072825;28;20198;-84
2023/09/13 08:23:27;;;;;;;0.60;0.60;;;;;;;;;;5072555;28;20202;-84
2023/09/13 08:25:56;;;;;;;0.40;0.40;;;;;;;;;;5072632;28;20255;-84
2023/09/13 08:28:44;;;;;;;0.70;0.70;;;;;;;;;;5071686;28;20242;-84
2023/09/13 08:31:15;;;;;;;1.57;0.90;;;;;;;;;;5072365;28;20204;-84
2023/09/13 08:33:43;;;;;;;1.90;1.13;;;;;;;;;;5073176;28;20293;-83
2023/09/13 08:36:12;;;;;;;3.20;0.80;;;;;;;;;;5072317;28;20225;-84
2023/09/13 08:38:40;;;;;;;0.47;0.47;;;;;;;;;;5072231;28;20210;-84
2023/09/13 08:41:09;;;;;;;0.53;0.53;;;;;;;;;;5072573;28;20226;-84
2023/09/13 08:43:39;;;;;;;1.90;0.97;;;;;;;;;;5072770;28;20199;-84
2023/09/13 08:46:08;;;;;;;0.50;0.50;;;;;;;;;;5072308;28;20202;-84
2023/09/13 08:48:38;;;;;;;0.83;0.60;;;;;;;;;;5072320;28;20212;-84
2023/09/13 08:51:14;;;;;;;0.70;0.70;;;;;;;;;;5083730;28;20197;-85
2023/09/13 08:53:44;;;;;;;1.40;1.00;;;;;;;;;;5079484;28;20285;-84
2023/09/13 08:56:13;;;;;;;0.77;0.70;;;;;;;;;;5064961;28;20403;-83
2023/09/13 08:58:47;;;;;;;0.80;0.80;;;;;;;;;;5069768;28;20250;-84
2023/09/13 09:01:18;;;;;;;5.17;1.10;;;;;;;;;;5064386;28;20207;-84
2023/09/13 09:03:50;;;;;;;1.50;0.77;;;;;;;;;;5066264;28;20304;-85
2023/09/13 09:06:19;;;;;;;0.60;0.60;;;;;;;;;;5063881;28;20212;-85
2023/09/13 09:08:49;;;;;;;0.43;0.43;;;;;;;;;;5067046;28;20220;-85
2023/09/13 09:11:20;;;;;;;0.57;0.57;;;;;;;;;;5069186;28;20247;-85
2023/09/13 09:13:49;;;;;;;1.97;0.40;;;;;;;;;;5070581;28;20220;-85
2023/09/13 09:16:24;;;;;;;5.63;0.90;;;;;;;;;;5064775;28;20256;-84
2023/09/13 09:19:07;;;;;;;0.47;0.47;;;;;;;;;;5070451;28;20206;-84
2023/09/13 09:21:37;;;;;;;0.50;0.50;;;;;;;;;;5070873;28;20212;-84
2023/09/13 09:24:06;;;;;;;0.77;0.77;;;;;;;;;;5065078;28;20224;-84
2023/09/13 09:26:35;;;;;;;2.93;1.00;;;;;;;;;;5067670;28;20209;-83
2023/09/13 09:29:12;;;;;;;0.37;0.37;;;;;;;;;;5068503;28;20238;-84
2023/09/13 09:31:41;;;;;;;7.73;1.53;;;;;;;;;;5067457;28;20207;-84
2023/09/13 09:34:12;;;;;;;1.93;1.07;;;;;;;;;;5069245;28;20259;-84
2023/09/13 09:36:41;;;;;;;0.30;0.30;;;;;;;;;;5077552;28;20213;-84
2023/09/13 09:39:10;;;;;;;0.30;0.30;;;;;;;;;;5068431;28;20222;-84
2023/09/13 09:41:39;;;;;;;0.30;0.30;;;;;;;;;;5068632;28;20201;-84
2023/09/13 09:44:08;;;;;;;0.33;0.33;;;;;;;;;;5067604;28;20204;-84
2023/09/13 09:46:37;;;;;;;0.40;0.40;;;;;;;;;;5064571;28;20213;-84
2023/09/13 09:49:06;;;;;;;0.30;0.30;;;;;;;;;;5064388;28;20256;-84
2023/09/13 09:51:36;;;;;;;0.30;0.30;;;;;;;;;;5066819;28;20209;-83
2023/09/13 09:54:05;;;;;;;0.40;0.40;;;;;;;;;;5065995;28;20225;-83
2023/09/13 09:56:33;;;;;;;0.30;0.30;;;;;;;;;;5068219;28;20204;-84
2023/09/13 09:59:03;;;;;;;0.40;0.40;;;;;;;;;;5067804;28;20214;-83
2023/09/13 10:01:31;;;;;;;0.30;0.30;;;;;;;;;;5066865;28;20293;-84
2023/09/13 10:04:09;;;;;;;0.30;0.30;;;;;;;;;;5066028;28;20205;-84
2023/09/13 10:06:55;;;;;;;0.40;0.40;;;;;;;;;;5067003;28;20206;-84
2023/09/13 10:09:24;;;;;;;0.40;0.40;;;;;;;;;;5063078;28;20206;-84
2023/09/13 10:11:58;;;;;;;0.30;0.30;;;;;;;;;;5068050;28;20217;-84
2023/09/13 10:14:27;;;;;;;0.40;0.40;;;;;;;;;;5068892;28;20293;-84
2023/09/13 10:16:56;;;;;;;0.37;0.37;;;;;;;;;;5062812;28;20214;-84
2023/09/13 10:19:26;;;;;;;0.40;0.40;;;;;;;;;;5069019;28;20264;-83
2023/09/13 10:21:57;;;;;;;0.30;0.30;;;;;;;;;;5068000;28;20213;-83
2023/09/13 10:24:26;;;;;;;1.70;1.70;;;;;;;;;;5067178;28;20196;-84
2023/09/13 10:26:55;;;;;;;0.30;0.30;;;;;;;;;;5066892;28;20220;-83
2023/09/13 10:29:26;;;;;;;0.30;0.30;;;;;;;;;;5062816;28;20275;-83
2023/09/13 10:31:56;;;;;;;0.30;0.30;;;;;;;;;;5065114;28;20280;-83
2023/09/13 10:34:27;;;;;;;0.30;0.30;;;;;;;;;;5063249;28;20285;-84
2023/09/13 10:37:02;;;;;;;0.40;0.40;;;;;;;;;;5065633;28;20229;-83
2023/09/13 10:39:31;;;;;;;0.30;0.30;;;;;;;;;;5069806;28;20251;-84
2023/09/13 10:42:03;;;;;;;0.30;0.30;;;;;;;;;;5065709;28;20216;-83
2023/09/13 10:44:33;;;;;;;0.30;0.30;;;;;;;;;;5063444;28;20243;-84
2023/09/13 10:47:01;;;;;;;0.30;0.30;;;;;;;;;;5065759;28;20266;-84
2023/09/13 10:49:30;;;;;;;0.30;0.30;;;;;;;;;;5064348;28;20215;-84
2023/09/13 10:52:00;;;;;;;0.30;0.30;;;;;;;;;;5064006;28;20204;-84
2023/09/13 10:54:30;;;;;;;0.30;0.30;;;;;;;;;;5066889;28;20219;-84
2023/09/13 10:56:59;;;;;;;0.30;0.30;;;;;;;;;;5060580;28;20214;-84
2023/09/13 10:59:27;;;;;;;0.30;0.30;;;;;;;;;;5065975;28;20467;-85
2023/09/13 11:02:04;;;;;;;0.30;0.30;;;;;;;;;;5063355;28;20211;-85
2023/09/13 11:04:40;;;;;;;0.30;0.30;;;;;;;;;;5063480;28;20232;-86
2023/09/13 11:07:20;;;;;;;0.30;0.30;;;;;;;;;;5065106;28;20190;-85
2023/09/13 11:09:49;;;;;;;0.30;0.30;;;;;;;;;;5065795;28;20212;-84
2023/09/13 11:12:21;;;;;;;0.30;0.30;;;;;;;;;;5061235;28;20209;-85
2023/09/13 11:14:52;;;;;;;0.30;0.30;;;;;;;;;;5064780;28;20220;-83
2023/09/13 11:17:38;;;;;;;0.30;0.30;;;;;;;;;;5063080;28;20201;-84
2023/09/13 11:20:29;;;;;;;0.40;0.40;;;;;;;;;;5060872;28;20198;-84
2023/09/13 11:23:09;;;;;;;0.30;0.30;;;;;;;;;;5058025;28;20217;-85
2023/09/13 11:25:43;;;;;;;0.30;0.30;;;;;;;;;;5064172;28;20209;-85
2023/09/13 11:28:31;;;;;;;0.30;0.30;;;;;;;;;;5061926;28;20237;-84
2023/09/13 11:31:01;;;;;;;0.30;0.30;;;;;;;;;;5062621;28;20225;-84
2023/09/13 11:33:30;;;;;;;0.30;0.30;;;;;;;;;;5062566;28;20224;-84
2023/09/13 11:36:00;;;;;;;0.40;0.40;;;;;;;;;;5063590;28;20254;-84
2023/09/13 11:38:31;;;;;;;0.30;0.30;;;;;;;;;;5061405;28;20216;-84
2023/09/13 11:41:00;;;;;;;0.30;0.30;;;;;;;;;;5064155;28;20215;-84
2023/09/13 11:43:29;;;;;;;1.27;1.10;;;;;;;;;;5062747;28;20228;-84
2023/09/13 11:46:03;;;;;;;1.27;0.50;;;;;;;;;;5064364;28;20216;-84
2023/09/13 11:48:39;;;;;;;2.53;1.13;;;;;;;;;;5062258;28;20198;-84
2023/09/13 11:51:25;;;;;;;1.97;1.67;;;;;;;;;;5057970;28;20200;-84
2023/09/13 11:54:16;;;;;;;1.00;0.90;;;;;;;;;;5060279;28;20240;-85
2023/09/13 11:56:48;;;;;;;2.77;1.20;;;;;;;;;;5064075;28;20212;-84
2023/09/13 11:59:24;;;;;;;0.90;0.90;;;;;;;;;;5065219;28;20227;-84
2023/09/13 12:01:53;;;;;;;0.63;0.63;;;;;;;;;;5064079;28;20202;-84
2023/09/13 12:04:26;;;;;;;1.57;1.47;;;;;;;;;;5060326;28;20266;-85
2023/09/13 12:06:59;;;;;;;3.10;1.83;;;;;;;;;;5063344;28;20211;-85
2023/09/13 12:09:34;;;;;;;0.90;0.90;;;;;;;;;;5067011;28;20297;-86
2023/09/13 12:12:08;;;;;;;1.53;1.00;;;;;;;;;;5061397;28;20190;-84
2023/09/13 12:14:44;;;;;;;0.97;0.73;;;;;;;;;;5064952;28;20232;-85
2023/09/13 12:17:15;;;;;;;2.60;1.20;;;;;;;;;;5063310;28;20206;-85
2023/09/13 12:19:46;;;;;;;2.13;1.23;;;;;;;;;;5062637;28;20209;-85
2023/09/13 12:22:15;;;;;;;1.47;1.37;;;;;;;;;;5066429;28;20201;-85
2023/09/13 12:24:58;;;;;;;0.83;0.83;;;;;;;;;;5061144;28;20201;-84
2023/09/13 12:27:26;;;;;;;13.70;1.93;;;;;;;;;;5062315;28;20220;-85
2023/09/13 12:29:55;;;;;;;2.03;1.83;;;;;;;;;;5056948;28;20236;-83
2023/09/13 12:32:24;;;;;;;1.07;0.97;;;;;;;;;;5064628;28;20243;-82
2023/09/13 12:34:53;;;;;;;5.30;1.20;;;;;;;;;;5066267;28;20320;-82
2023/09/13 12:37:21;;;;;;;2.33;1.13;;;;;;;;;;5067412;28;20235;-83
2023/09/13 12:39:50;;;;;;;0.67;0.67;;;;;;;;;;5067915;28;20197;-82
2023/09/13 12:42:20;;;;;;;3.73;1.53;;;;;;;;;;5072069;28;20259;-82
2023/09/13 12:44:49;;;;;;;0.50;0.50;;;;;;;;;;5063881;28;20212;-82
2023/09/13 12:47:18;;;;;;;1.20;1.10;;;;;;;;;;5069321;28;20207;-81
2023/09/13 12:49:47;;;;;;;1.93;1.23;;;;;;;;;;5067966;28;20256;-81
2023/09/13 12:52:16;;;;;;;1.90;1.30;;;;;;;;;;5069418;28;20311;-84
2023/09/13 12:54:45;;;;;;;0.80;0.80;;;;;;;;;;5067300;28;20227;-80
2023/09/13 12:57:15;;;;;;;0.73;0.73;;;;;;;;;;5068227;28;20293;-81
2023/09/13 12:59:46;;;;;;;1.87;1.17;;;;;;;;;;5060162;28;20209;-81
2023/09/13 13:02:16;;;;;;;11.57;3.20;;;;;;;;;;5065823;28;20202;-83
2023/09/13 13:04:46;;;;;;;0.63;0.53;;;;;;;;;;5065800;28;20320;-83
2023/09/13 13:07:21;;;;;;;2.03;1.00;;;;;;;;;;5066905;28;20203;-82
2023/09/13 13:09:53;;;;;;;2.87;0.90;;;;;;;;;;5070228;28;20233;-81
2023/09/13 13:12:21;;;;;;;0.80;0.80;;;;;;;;;;5064152;28;20282;-81
2023/09/13 13:14:52;;;;;;;1.77;0.97;;;;;;;;;;5066526;28;20222;-83
2023/09/13 13:17:21;;;;;;;1.47;1.37;;;;;;;;;;5067334;28;20207;-81
2023/09/13 13:19:50;;;;;;;2.83;1.90;;;;;;;;;;5065838;28;21630;-81
2023/09/13 13:22:24;;;;;;;1.33;1.23;;;;;;;;;;5068693;28;20208;-80
2023/09/13 13:24:53;;;;;;;0.67;0.67;;;;;;;;;;5067783;28;20202;-82
2023/09/13 13:27:22;;;;;;;0.90;0.90;;;;;;;;;;5068788;28;20206;-82
2023/09/13 13:29:52;;;;;;;0.87;0.87;;;;;;;;;;5069704;28;20326;-81
2023/09/13 13:32:21;;;;;;;1.07;0.80;;;;;;;;;;5063321;28;20226;-81
2023/09/13 13:34:50;;;;;;;0.73;0.73;;;;;;;;;;5062748;28;20217;-81
2023/09/13 13:37:20;;;;;;;1.33;1.23;;;;;;;;;;5064098;28;20226;-81
2023/09/13 13:39:49;;;;;;;3.50;0.87;;;;;;;;;;5067885;28;20215;-80
2023/09/13 13:42:17;;;;;;;3.80;1.37;;;;;;;;;;5064600;28;20195;-80
2023/09/13 13:44:46;;;;;;;1.73;1.50;;;;;;;;;;5064566;28;20222;-82
2023/09/13 13:47:16;;;;;;;1.57;1.10;;;;;;;;;;5063443;28;20200;-81
2023/09/13 13:49:45;;;;;;;1.27;1.17;;;;;;;;;;5063343;28;20635;-80
2023/09/13 13:52:14;;;;;;;3.77;0.67;;;;;;;;;;5066966;28;20208;-81
2023/09/13 13:54:43;;;;;;;5.07;1.77;;;;;;;;;;5067767;28;20220;-81
2023/09/13 13:57:13;;;;;;;0.93;0.93;;;;;;;;;;5062880;28;20221;-81
2023/09/13 13:59:43;;;;;;;0.77;0.77;;;;;;;;;;5066590;28;20202;-81
2023/09/13 14:02:14;;;;;;;0.50;0.50;;;;;;;;;;5066868;28;20194;-81
2023/09/13 14:04:49;;;;;;;0.70;0.70;;;;;;;;;;5068297;28;20284;-82
2023/09/13 14:07:20;;;;;;;2.63;1.10;;;;;;;;;;5064978;28;20210;-83
2023/09/13 14:09:50;;;;;;;0.63;0.63;;;;;;;;;;5068327;28;20233;-82
2023/09/13 14:12:19;;;;;;;1.90;1.47;;;;;;;;;;5063707;28;20197;-83
2023/09/13 14:14:48;;;;;;;1.70;1.13;;;;;;;;;;5062288;28;20226;-83
2023/09/13 14:17:16;;;;;;;1.53;0.90;;;;;;;;;;5063572;28;20252;-82
2023/09/13 14:19:49;;;;;;;4.53;0.90;;;;;;;;;;5067175;28;20202;-83
2023/09/13 14:22:17;;;;;;;0.50;0.50;;;;;;;;;;5068905;28;20206;-84
2023/09/13 14:24:46;;;;;;;5.30;1.30;;;;;;;;;;5068982;28;20213;-83
2023/09/13 14:27:15;;;;;;;0.83;0.77;;;;;;;;;;5064297;28;20196;-83
2023/09/13 14:29:44;;;;;;;1.43;1.30;;;;;;;;;;5067650;28;20239;-82
2023/09/13 14:32:17;;;;;;;2.53;2.17;;;;;;;;;;5060979;28;20269;-82
2023/09/13 14:34:52;;;;;;;2.00;1.03;;;;;;;;;;5067760;28;20254;-83
2023/09/13 14:37:21;;;;;;;3.03;1.20;;;;;;;;;;5064554;28;20254;-84
2023/09/13 14:39:49;;;;;;;5.60;1.50;;;;;;;;;;5066936;28;20208;-85
2023/09/13 14:42:18;;;;;;;0.50;0.50;;;;;;;;;;5066531;28;20209;-84
2023/09/13 14:44:46;;;;;;;0.50;0.50;;;;;;;;;;5064810;28;20239;-84
2023/09/13 14:47:16;;;;;;;7.27;1.43;;;;;;;;;;5067829;28;20224;-84
2023/09/13 14:49:45;;;;;;;2.63;1.00;;;;;;;;;;5066585;28;20202;-83
2023/09/13 14:52:16;;;;;;;0.70;0.70;;;;;;;;;;5066124;28;20229;-85
2023/09/13 14:54:45;;;;;;;2.13;0.87;;;;;;;;;;5065397;28;20205;-85
2023/09/13 14:57:13;;;;;;;2.43;1.93;;;;;;;;;;5066781;28;20307;-85
2023/09/13 14:59:42;;;;;;;1.27;0.67;;;;;;;;;;5065570;28;20222;-85
2023/09/13 15:02:11;;;;;;;3.53;0.90;;;;;;;;;;5066394;28;20203;-86
2023/09/13 15:04:39;;;;;;;0.57;0.57;;;;;;;;;;5065754;28;20217;-85